Time;durP1;ratioP1;P1;durP2;ratioP2;P2;SDS_P1;SDS_P2;PMS_P1;PMS_P2;Temp;Humidity;BMP_temperature;BMP_pressure;BME280_temperature;BME280_humidity;BME280_pressure;Samples;Min_cycle;Max_cycle;Signal;HPM_P1;HPM_P2
2021/10/10 00:01:42;;;;;;;3.00;2.00;;;23.20;51.70;;;;;;4984147;28;20609;-59
2021/10/10 00:04:08;;;;;;;3.85;2.30;;;23.20;51.80;;;;;;4980727;28;20178;-59
2021/10/10 00:06:35;;;;;;;3.20;2.00;;;23.20;51.80;;;;;;4972488;28;20034;-59
2021/10/10 00:09:01;;;;;;;3.00;2.10;;;23.20;51.80;;;;;;4984911;28;20109;-58
2021/10/10 00:11:26;;;;;;;2.85;2.08;;;23.10;51.80;;;;;;4985637;28;20565;-59
2021/10/10 00:13:52;;;;;;;3.45;2.22;;;23.10;51.80;;;;;;4984596;28;20038;-58
2021/10/10 00:16:18;;;;;;;3.47;2.00;;;23.10;51.80;;;;;;4983853;28;20030;-59
2021/10/10 00:18:43;;;;;;;3.63;2.00;;;23.10;51.80;;;;;;4984890;28;20046;-59
2021/10/10 00:21:09;;;;;;;2.75;1.80;;;23.10;51.80;;;;;;4982748;28;20041;-60
2021/10/10 00:23:34;;;;;;;2.75;1.83;;;23.00;51.80;;;;;;4987184;28;20022;-58
2021/10/10 00:26:00;;;;;;;4.10;2.03;;;23.00;51.80;;;;;;4986304;28;20113;-60
2021/10/10 00:28:26;;;;;;;3.90;2.30;;;23.00;51.90;;;;;;4985740;28;20045;-59
2021/10/10 00:30:51;;;;;;;3.03;1.80;;;23.00;51.90;;;;;;4980041;28;20130;-59
2021/10/10 00:33:17;;;;;;;2.97;1.95;;;22.90;51.80;;;;;;4986912;28;20063;-59
2021/10/10 00:35:43;;;;;;;2.60;1.77;;;22.90;51.80;;;;;;4983831;28;20612;-60
2021/10/10 00:38:09;;;;;;;3.10;1.92;;;22.90;51.80;;;;;;4986593;28;20041;-59
2021/10/10 00:40:34;;;;;;;2.95;1.90;;;22.90;51.90;;;;;;4979900;28;20031;-58
2021/10/10 00:43:00;;;;;;;3.00;1.92;;;22.80;51.80;;;;;;4984895;28;20049;-59
2021/10/10 00:45:26;;;;;;;2.78;1.85;;;22.90;51.90;;;;;;4987625;28;20034;-59
2021/10/10 00:47:51;;;;;;;3.20;2.00;;;22.80;51.90;;;;;;4988114;28;20023;-59
2021/10/10 00:50:17;;;;;;;2.67;1.90;;;22.80;51.90;;;;;;4980218;28;20156;-60
2021/10/10 00:52:45;;;;;;;2.80;1.80;;;22.80;51.90;;;;;;4982539;28;20045;-59
2021/10/10 00:55:12;;;;;;;3.08;1.90;;;22.80;51.90;;;;;;4984803;28;20441;-56
2021/10/10 00:57:43;;;;;;;3.20;1.92;;;22.80;52.00;;;;;;4987172;28;20061;-57
2021/10/10 01:00:09;;;;;;;3.17;1.90;;;22.80;52.00;;;;;;4988323;28;20125;-60
2021/10/10 01:02:36;;;;;;;2.95;1.90;;;22.70;52.00;;;;;;4980377;28;20405;-59
2021/10/10 01:05:03;;;;;;;3.17;2.17;;;22.70;52.00;;;;;;4983235;28;20038;-58
2021/10/10 01:07:29;;;;;;;3.10;1.88;;;22.70;52.00;;;;;;4982994;28;20108;-59
2021/10/10 01:09:54;;;;;;;3.45;1.90;;;22.70;52.00;;;;;;4987005;28;20073;-58
2021/10/10 01:12:20;;;;;;;3.03;2.00;;;22.70;52.00;;;;;;4985089;28;20026;-59
2021/10/10 01:14:46;;;;;;;2.97;1.95;;;22.60;52.00;;;;;;4986443;28;20034;-59
2021/10/10 01:17:11;;;;;;;3.00;2.05;;;22.60;52.00;;;;;;4986149;28;20129;-57
2021/10/10 01:19:38;;;;;;;3.38;1.80;;;22.60;52.00;;;;;;4984966;28;20043;-60
2021/10/10 01:22:04;;;;;;;3.33;2.15;;;22.60;52.10;;;;;;4985127;28;20049;-59
2021/10/10 01:24:30;;;;;;;4.50;2.03;;;22.50;52.00;;;;;;4985817;28;20034;-58
2021/10/10 01:26:56;;;;;;;2.67;1.67;;;22.60;52.10;;;;;;4984983;28;20038;-60
2021/10/10 01:29:22;;;;;;;3.17;1.80;;;22.50;52.10;;;;;;4986836;28;20812;-60
2021/10/10 01:31:48;;;;;;;4.00;2.00;;;22.50;52.10;;;;;;4982408;28;20050;-58
2021/10/10 01:34:14;;;;;;;2.63;1.80;;;22.50;52.10;;;;;;4985811;28;20027;-58
2021/10/10 01:36:41;;;;;;;3.25;1.80;;;22.50;52.10;;;;;;4982056;28;20036;-56
2021/10/10 01:39:07;;;;;;;3.15;1.95;;;22.50;52.10;;;;;;4987202;28;20018;-53
2021/10/10 01:41:32;;;;;;;2.65;1.73;;;22.40;52.10;;;;;;4985040;28;20084;-60
2021/10/10 01:43:58;;;;;;;3.22;1.98;;;22.40;52.20;;;;;;4984622;28;20030;-60
2021/10/10 01:46:23;;;;;;;2.67;1.83;;;22.40;52.20;;;;;;4982026;28;20037;-54
2021/10/10 01:48:49;;;;;;;2.42;1.80;;;22.40;52.20;;;;;;4985405;28;20156;-60
2021/10/10 01:51:16;;;;;;;2.97;1.88;;;22.40;52.20;;;;;;4984059;28;20420;-59
2021/10/10 01:53:42;;;;;;;2.83;1.98;;;22.30;52.20;;;;;;4985698;28;20026;-54
2021/10/10 01:56:07;;;;;;;3.00;2.00;;;22.40;52.20;;;;;;4980845;28;20034;-55
2021/10/10 01:58:34;;;;;;;2.70;2.00;;;22.40;52.20;;;;;;4984641;28;20054;-60
2021/10/10 02:00:59;;;;;;;3.45;2.05;;;22.30;52.20;;;;;;4987515;28;20034;-57
2021/10/10 02:03:25;;;;;;;3.10;1.75;;;22.30;52.20;;;;;;4985841;28;20031;-60
2021/10/10 02:05:52;;;;;;;2.90;2.03;;;22.30;52.30;;;;;;4980814;28;20940;-54
2021/10/10 02:08:18;;;;;;;2.90;2.00;;;22.30;52.30;;;;;;4985272;28;20050;-58
2021/10/10 02:10:44;;;;;;;2.20;1.70;;;22.30;52.30;;;;;;4986002;28;20089;-55
2021/10/10 02:13:10;;;;;;;3.20;1.83;;;22.20;52.30;;;;;;4985744;28;20046;-54
2021/10/10 02:15:39;;;;;;;2.40;1.80;;;22.20;52.30;;;;;;4981724;28;20418;-56
2021/10/10 02:18:06;;;;;;;3.03;1.88;;;22.20;52.30;;;;;;4983669;28;20090;-58
2021/10/10 02:20:32;;;;;;;2.70;2.00;;;22.20;52.30;;;;;;4983930;28;20034;-59
2021/10/10 02:22:57;;;;;;;3.55;1.70;;;22.20;52.30;;;;;;4986859;28;20041;-56
2021/10/10 02:25:23;;;;;;;3.83;1.90;;;22.20;52.30;;;;;;4985708;28;20034;-59
2021/10/10 02:27:49;;;;;;;2.75;1.80;;;22.10;52.30;;;;;;4986104;28;20040;-54
2021/10/10 02:30:14;;;;;;;3.15;2.00;;;22.10;52.30;;;;;;4983009;28;20030;-58
2021/10/10 02:32:40;;;;;;;2.70;1.83;;;22.10;52.40;;;;;;4985052;28;20022;-59
2021/10/10 02:35:06;;;;;;;3.03;2.00;;;22.10;52.40;;;;;;4984428;28;20494;-59
2021/10/10 02:37:32;;;;;;;2.75;1.90;;;22.10;52.40;;;;;;4979802;28;20110;-59
2021/10/10 02:39:57;;;;;;;2.65;1.70;;;22.10;52.40;;;;;;4983925;28;20153;-59
2021/10/10 02:42:23;;;;;;;3.10;1.83;;;22.10;52.40;;;;;;4986594;28;20069;-59
2021/10/10 02:44:49;;;;;;;2.95;1.73;;;22.10;52.40;;;;;;4985555;28;20107;-60
2021/10/10 02:47:14;;;;;;;2.78;1.95;;;22.00;52.40;;;;;;4984227;28;20022;-60
2021/10/10 02:49:41;;;;;;;2.75;1.80;;;22.00;52.40;;;;;;4978149;28;20057;-59
2021/10/10 02:52:06;;;;;;;2.47;1.80;;;22.00;52.40;;;;;;4980856;28;20418;-59
2021/10/10 02:54:32;;;;;;;2.90;1.98;;;22.00;52.50;;;;;;4988327;28;20038;-59
2021/10/10 02:56:58;;;;;;;3.08;1.92;;;21.90;52.40;;;;;;4986451;28;20040;-57
2021/10/10 02:59:23;;;;;;;2.70;1.75;;;21.90;52.50;;;;;;4987938;28;20058;-58
2021/10/10 03:01:49;;;;;;;3.00;1.70;;;21.90;52.50;;;;;;4983355;28;20042;-60
2021/10/10 03:04:14;;;;;;;2.88;1.80;;;21.90;52.50;;;;;;4983263;28;20415;-59
2021/10/10 03:06:40;;;;;;;3.10;1.70;;;21.90;52.50;;;;;;4981077;28;20062;-59
2021/10/10 03:09:06;;;;;;;2.70;1.70;;;21.90;52.50;;;;;;4986855;28;20026;-55
2021/10/10 03:11:31;;;;;;;3.13;1.90;;;21.90;52.50;;;;;;4984617;28;20347;-60
2021/10/10 03:13:57;;;;;;;2.47;1.80;;;21.90;52.50;;;;;;4989587;28;20022;-58
2021/10/10 03:16:22;;;;;;;2.60;1.80;;;21.90;52.50;;;;;;4987383;28;20039;-60
2021/10/10 03:18:48;;;;;;;2.50;2.00;;;21.80;52.50;;;;;;4985664;28;20026;-59
2021/10/10 03:21:14;;;;;;;2.60;2.00;;;21.80;52.50;;;;;;4978882;28;20045;-59
2021/10/10 03:23:39;;;;;;;2.50;1.83;;;21.80;52.50;;;;;;4986775;28;20046;-60
2021/10/10 03:26:05;;;;;;;3.10;1.80;;;21.80;52.60;;;;;;4989509;28;20038;-59
2021/10/10 03:28:31;;;;;;;2.50;1.80;;;21.80;52.60;;;;;;4988628;28;20044;-57
2021/10/10 03:30:57;;;;;;;3.20;2.00;;;21.80;52.60;;;;;;4985753;28;20120;-60
2021/10/10 03:33:23;;;;;;;3.53;1.88;;;21.70;52.60;;;;;;4987096;28;20035;-58
2021/10/10 03:35:49;;;;;;;2.80;1.92;;;21.70;52.50;;;;;;4986784;28;20034;-53
2021/10/10 03:38:15;;;;;;;3.20;2.10;;;21.70;52.60;;;;;;4981543;28;20471;-58
2021/10/10 03:40:40;;;;;;;2.38;1.70;;;21.70;52.60;;;;;;4987094;28;20038;-56
2021/10/10 03:43:06;;;;;;;3.00;2.22;;;21.70;52.60;;;;;;4986558;28;20026;-55
2021/10/10 03:45:32;;;;;;;2.75;1.95;;;21.70;52.60;;;;;;4988174;28;20056;-60
2021/10/10 03:47:57;;;;;;;2.33;1.83;;;21.70;52.70;;;;;;4986185;28;20363;-60
2021/10/10 03:50:23;;;;;;;2.75;1.85;;;21.70;52.60;;;;;;4982717;28;20519;-60
2021/10/10 03:52:49;;;;;;;2.50;1.70;;;21.60;52.60;;;;;;4986991;28;20414;-58
2021/10/10 03:57:59;;;;;;;2.90;1.90;;;21.60;52.60;;;;;;4989164;28;20315;-59
2021/10/10 04:00:27;;;;;;;2.53;1.80;;;21.60;52.70;;;;;;4983847;28;20026;-59
2021/10/10 04:02:52;;;;;;;3.00;2.00;;;21.60;52.70;;;;;;4988679;28;20044;-58
2021/10/10 04:05:40;;;;;;;2.70;1.80;;;21.60;52.70;;;;;;4985518;28;20034;-57
2021/10/10 04:08:06;;;;;;;2.47;1.70;;;21.60;52.70;;;;;;4987679;28;20629;-59
2021/10/10 04:10:31;;;;;;;2.22;1.75;;;21.60;52.80;;;;;;4984829;28;20034;-60
2021/10/10 04:12:57;;;;;;;2.53;1.80;;;21.60;52.70;;;;;;4982579;28;20030;-56
2021/10/10 04:15:23;;;;;;;2.78;1.80;;;21.50;52.70;;;;;;4983524;28;20033;-57
2021/10/10 04:17:49;;;;;;;2.50;1.70;;;21.50;52.70;;;;;;4987987;28;20528;-52
2021/10/10 04:20:18;;;;;;;2.70;2.00;;;21.50;52.70;;;;;;4981924;28;20038;-59
2021/10/10 04:22:44;;;;;;;2.80;1.88;;;21.50;52.70;;;;;;4984820;28;20030;-60
2021/10/10 04:25:11;;;;;;;3.22;2.15;;;21.50;52.70;;;;;;4982989;28;20087;-59
2021/10/10 04:27:38;;;;;;;2.70;1.90;;;21.50;52.80;;;;;;4987311;28;20478;-55
2021/10/10 04:30:07;;;;;;;3.53;2.28;;;21.50;52.80;;;;;;4984137;28;20414;-60
2021/10/10 04:32:33;;;;;;;2.22;1.70;;;21.50;52.80;;;;;;4987391;28;20034;-53
2021/10/10 04:34:59;;;;;;;2.72;1.95;;;21.50;52.80;;;;;;4987367;28;20030;-59
2021/10/10 04:37:25;;;;;;;2.97;1.90;;;21.50;52.80;;;;;;4995361;28;20042;-60
2021/10/10 04:39:51;;;;;;;2.30;1.80;;;21.40;52.80;;;;;;4987999;28;20057;-60
2021/10/10 04:42:17;;;;;;;2.67;1.85;;;21.40;52.80;;;;;;4987624;28;20485;-57
2021/10/10 04:44:42;;;;;;;2.47;1.83;;;21.40;52.80;;;;;;4987431;28;20390;-57
2021/10/10 04:47:08;;;;;;;3.25;2.00;;;21.40;52.80;;;;;;4993568;28;20044;-59
2021/10/10 04:49:34;;;;;;;2.67;1.85;;;21.40;52.80;;;;;;4986436;28;20479;-52
2021/10/10 04:52:03;;;;;;;2.55;1.90;;;21.40;52.90;;;;;;4983767;28;20109;-58
2021/10/10 04:54:30;;;;;;;2.55;1.65;;;21.40;52.90;;;;;;4986611;28;20031;-59
2021/10/10 04:56:55;;;;;;;2.80;1.92;;;21.30;52.80;;;;;;4985313;28;20030;-58
2021/10/10 04:59:21;;;;;;;2.67;1.90;;;21.30;52.90;;;;;;4986709;28;20397;-53
2021/10/10 05:01:46;;;;;;;3.17;2.08;;;21.30;52.90;;;;;;4985144;28;20042;-58
2021/10/10 05:04:13;;;;;;;2.70;1.80;;;21.30;52.90;;;;;;4984351;28;20109;-57
2021/10/10 05:06:38;;;;;;;2.33;1.77;;;21.30;52.90;;;;;;4983673;28;20105;-59
2021/10/10 05:09:04;;;;;;;2.10;1.60;;;21.30;52.90;;;;;;4981867;28;20610;-55
2021/10/10 05:11:29;;;;;;;2.70;1.80;;;21.30;52.90;;;;;;4985243;28;20021;-58
2021/10/10 05:13:55;;;;;;;3.15;1.92;;;21.30;52.90;;;;;;4984176;28;20054;-59
2021/10/10 05:16:21;;;;;;;2.38;1.70;;;21.30;52.90;;;;;;4986495;28;20037;-59
2021/10/10 05:18:46;;;;;;;2.53;1.90;;;21.30;53.00;;;;;;4986871;28;20045;-60
2021/10/10 05:21:12;;;;;;;2.70;1.83;;;21.20;52.90;;;;;;4981742;28;20084;-59
2021/10/10 05:23:37;;;;;;;2.28;1.75;;;21.20;52.90;;;;;;4985822;28;20064;-53
2021/10/10 05:26:03;;;;;;;2.20;1.63;;;21.20;52.90;;;;;;4986318;28;20022;-51
2021/10/10 05:28:29;;;;;;;2.83;1.80;;;21.20;53.00;;;;;;4985237;28;20506;-56
2021/10/10 05:30:54;;;;;;;2.90;1.90;;;21.20;53.00;;;;;;4983920;28;20031;-58
2021/10/10 05:33:20;;;;;;;2.65;1.80;;;21.20;53.00;;;;;;4986867;28;20471;-59
2021/10/10 05:35:46;;;;;;;2.63;1.80;;;21.20;53.00;;;;;;4982297;28;20045;-57
2021/10/10 05:38:12;;;;;;;2.60;1.80;;;21.10;53.00;;;;;;4984377;28;20046;-59
2021/10/10 05:40:38;;;;;;;2.90;1.90;;;21.20;53.00;;;;;;4986402;28;20566;-57
2021/10/10 05:43:04;;;;;;;2.45;1.70;;;21.20;53.10;;;;;;4978045;28;20045;-59
2021/10/10 05:45:29;;;;;;;2.85;1.92;;;21.10;53.00;;;;;;4984116;28;20022;-59
2021/10/10 05:47:55;;;;;;;2.90;2.20;;;21.10;53.00;;;;;;4986859;28;20112;-59
2021/10/10 05:50:21;;;;;;;2.70;1.77;;;21.10;53.10;;;;;;4981886;28;20035;-59
2021/10/10 05:52:46;;;;;;;2.63;1.98;;;21.10;53.10;;;;;;4983504;28;20026;-55
2021/10/10 05:55:14;;;;;;;2.30;1.80;;;21.10;53.00;;;;;;4985411;28;20042;-60
2021/10/10 05:57:45;;;;;;;2.42;1.80;;;21.10;53.10;;;;;;4986967;28;20027;-59
2021/10/10 06:00:12;;;;;;;2.92;1.90;;;21.10;53.10;;;;;;4986923;28;20049;-58
2021/10/10 06:02:38;;;;;;;3.38;2.10;;;21.10;53.10;;;;;;4983653;28;20066;-60
2021/10/10 06:05:04;;;;;;;2.80;1.83;;;21.10;53.10;;;;;;4982175;28;20085;-58
2021/10/10 06:07:29;;;;;;;2.88;1.80;;;21.10;53.10;;;;;;4980262;28;20045;-59
2021/10/10 06:09:55;;;;;;;3.83;1.92;;;21.00;53.10;;;;;;4981837;28;20108;-60
2021/10/10 06:12:22;;;;;;;3.17;2.10;;;21.00;53.10;;;;;;4986704;28;20030;-60
2021/10/10 06:14:50;;;;;;;2.70;1.90;;;21.00;53.10;;;;;;4982969;28;20026;-53
2021/10/10 06:17:19;;;;;;;2.90;1.85;;;21.00;53.10;;;;;;4984646;28;20121;-57
2021/10/10 06:19:45;;;;;;;2.80;1.80;;;21.00;53.10;;;;;;4984577;28;20083;-60
2021/10/10 06:22:11;;;;;;;3.05;1.95;;;21.00;53.10;;;;;;4982954;28;20097;-60
2021/10/10 06:24:37;;;;;;;2.55;2.08;;;21.00;53.20;;;;;;4985241;28;20054;-60
2021/10/10 06:27:04;;;;;;;2.75;2.00;;;21.00;53.20;;;;;;4984540;28;20034;-59
2021/10/10 06:29:29;;;;;;;3.05;2.10;;;21.00;53.20;;;;;;4986861;28;20041;-50
2021/10/10 06:31:55;;;;;;;2.75;1.92;;;20.90;53.10;;;;;;4979432;28;20046;-58
2021/10/10 06:34:21;;;;;;;2.25;1.77;;;21.00;53.20;;;;;;4984391;28;20041;-53
2021/10/10 06:36:47;;;;;;;2.35;1.80;;;21.00;53.20;;;;;;4986154;28;20323;-58
2021/10/10 06:39:12;;;;;;;2.42;1.65;;;20.90;53.10;;;;;;4983686;28;20045;-56
2021/10/10 06:41:38;;;;;;;2.42;1.90;;;20.90;53.20;;;;;;4988767;28;20034;-55
2021/10/10 06:44:04;;;;;;;2.55;1.92;;;20.90;53.20;;;;;;4985961;28;20032;-53
2021/10/10 06:46:30;;;;;;;2.60;1.80;;;20.90;53.20;;;;;;4987657;28;20370;-55
2021/10/10 06:48:55;;;;;;;2.30;1.70;;;20.90;53.20;;;;;;4987499;28;20030;-57
2021/10/10 06:51:21;;;;;;;3.22;2.00;;;20.90;53.30;;;;;;4982985;28;20026;-58
2021/10/10 06:53:47;;;;;;;3.08;1.90;;;20.90;53.30;;;;;;4987791;28;20018;-54
2021/10/10 06:56:12;;;;;;;2.35;1.70;;;20.90;53.20;;;;;;4986971;28;20050;-56
2021/10/10 06:58:38;;;;;;;2.78;1.90;;;20.90;53.30;;;;;;4983158;28;20115;-57
2021/10/10 07:01:03;;;;;;;2.65;1.80;;;20.90;53.30;;;;;;4983468;28;20054;-58
2021/10/10 07:03:29;;;;;;;2.60;2.00;;;20.90;53.30;;;;;;4986444;28;20037;-56
2021/10/10 07:05:54;;;;;;;3.00;1.88;;;20.90;53.30;;;;;;4976922;28;20130;-51
2021/10/10 07:08:20;;;;;;;2.85;1.92;;;20.80;53.30;;;;;;4981072;28;20042;-58
2021/10/10 07:10:46;;;;;;;2.38;1.58;;;20.80;53.30;;;;;;4987378;28;20037;-53
2021/10/10 07:13:11;;;;;;;2.85;1.70;;;20.80;53.30;;;;;;4986567;28;20033;-51
2021/10/10 07:15:37;;;;;;;3.80;1.77;;;20.80;53.50;;;;;;4978893;28;20608;-57
2021/10/10 07:18:04;;;;;;;2.60;1.80;;;20.80;53.40;;;;;;4983699;28;20418;-58
2021/10/10 07:20:50;;;;;;;4.20;1.73;;;20.80;53.40;;;;;;4982529;28;20493;-58
2021/10/10 07:23:31;;;;;;;2.50;1.77;;;20.80;53.40;;;;;;4980510;28;20038;-54
2021/10/10 07:25:59;;;;;;;2.55;1.75;;;20.80;53.40;;;;;;4984957;28;20030;-58
2021/10/10 07:28:24;;;;;;;2.65;1.75;;;20.80;53.40;;;;;;4986579;28;20034;-53
2021/10/10 07:30:51;;;;;;;2.47;1.70;;;20.80;53.50;;;;;;4985264;28;20041;-55
2021/10/10 07:33:18;;;;;;;2.70;1.77;;;20.80;53.50;;;;;;4984043;28;20093;-56
2021/10/10 07:35:44;;;;;;;3.28;1.90;;;20.80;53.50;;;;;;4979254;28;20034;-58
2021/10/10 07:38:10;;;;;;;2.63;1.90;;;20.80;53.50;;;;;;4987845;28;20105;-49
2021/10/10 07:40:36;;;;;;;2.80;1.90;;;20.80;53.50;;;;;;4984242;28;20030;-58
2021/10/10 07:43:02;;;;;;;3.03;1.73;;;20.80;53.60;;;;;;4988037;28;20039;-59
2021/10/10 07:45:27;;;;;;;3.10;1.92;;;20.80;53.60;;;;;;4982255;28;20033;-56
2021/10/10 07:47:55;;;;;;;2.55;1.80;;;20.80;53.60;;;;;;4979685;28;20030;-55
2021/10/10 07:50:23;;;;;;;2.67;2.17;;;20.80;53.60;;;;;;4976635;28;20065;-56
2021/10/10 07:52:50;;;;;;;3.03;1.70;;;20.80;53.70;;;;;;4980895;28;20548;-57
2021/10/10 07:55:16;;;;;;;2.50;1.73;;;20.80;53.70;;;;;;4982640;28;20141;-58
2021/10/10 07:57:42;;;;;;;2.67;1.63;;;20.80;53.70;;;;;;4988414;28;20030;-50
2021/10/10 08:00:10;;;;;;;3.17;1.73;;;20.70;53.70;;;;;;4982304;28;20034;-56
2021/10/10 08:02:53;;;;;;;3.20;1.60;;;20.80;53.80;;;;;;4983712;28;20035;-58
2021/10/10 08:05:20;;;;;;;2.22;1.50;;;20.70;53.80;;;;;;4982350;28;20037;-55
2021/10/10 08:07:46;;;;;;;2.50;1.92;;;20.70;53.80;;;;;;4985936;28;20030;-51
2021/10/10 08:10:11;;;;;;;2.53;1.85;;;20.80;53.90;;;;;;4980118;28;20031;-54
2021/10/10 08:12:37;;;;;;;3.53;2.00;;;20.70;53.80;;;;;;4983672;28;20363;-56
2021/10/10 08:15:03;;;;;;;2.50;1.70;;;20.80;54.40;;;;;;4988715;28;20477;-56
2021/10/10 08:17:28;;;;;;;2.72;2.15;;;20.70;53.80;;;;;;4983413;28;20034;-54
2021/10/10 08:19:54;;;;;;;3.13;1.85;;;20.70;53.90;;;;;;4977447;28;20035;-56
2021/10/10 08:22:20;;;;;;;3.10;2.00;;;20.70;53.90;;;;;;4983103;28;20038;-58
2021/10/10 08:24:45;;;;;;;3.05;1.90;;;20.70;53.90;;;;;;4980963;28;20034;-57
2021/10/10 08:27:11;;;;;;;4.20;2.03;;;20.70;53.90;;;;;;4980046;28;20045;-53
2021/10/10 08:29:36;;;;;;;3.03;1.88;;;20.70;54.00;;;;;;4980194;28;20490;-57
2021/10/10 08:32:02;;;;;;;2.80;1.83;;;20.70;54.00;;;;;;4974048;28;20034;-55
2021/10/10 08:34:28;;;;;;;3.05;1.95;;;20.70;54.10;;;;;;4978404;28;20415;-56
2021/10/10 08:36:54;;;;;;;3.10;2.20;;;20.70;54.10;;;;;;4982838;28;20041;-55
2021/10/10 08:39:24;;;;;;;3.33;2.30;;;20.70;54.10;;;;;;4979058;28;20043;-55
2021/10/10 08:41:57;;;;;;;4.10;2.30;;;20.80;54.20;;;;;;4973858;28;20032;-55
2021/10/10 08:44:30;;;;;;;3.33;2.05;;;20.80;54.20;;;;;;4980817;28;20117;-56
2021/10/10 08:47:01;;;;;;;3.15;2.33;;;20.70;54.20;;;;;;4983123;28;20029;-58
2021/10/10 08:49:29;;;;;;;3.13;2.03;;;20.80;54.40;;;;;;4987018;28;20033;-52
2021/10/10 08:51:54;;;;;;;5.47;2.40;;;20.70;54.40;;;;;;4977675;28;20069;-55
2021/10/10 08:54:20;;;;;;;4.07;2.38;;;20.70;54.50;;;;;;4987248;28;20571;-57
2021/10/10 08:56:46;;;;;;;3.63;2.40;;;20.70;54.50;;;;;;4986529;28;20042;-52
2021/10/10 08:59:12;;;;;;;4.25;2.70;;;20.70;54.50;;;;;;4981083;28;20366;-54
2021/10/10 09:01:38;;;;;;;4.88;2.40;;;20.70;54.60;;;;;;4977819;28;20093;-52
2021/10/10 09:04:04;;;;;;;4.45;2.40;;;20.70;54.70;;;;;;4983609;28;20437;-50
2021/10/10 09:06:40;;;;;;;3.88;2.20;;;20.70;54.70;;;;;;4979812;28;20034;-57
2021/10/10 09:09:36;;;;;;;3.72;2.25;;;20.70;54.80;;;;;;4981666;28;20033;-54
2021/10/10 09:12:07;;;;;;;4.80;2.70;;;20.70;55.00;;;;;;4974568;28;20470;-51
2021/10/10 09:14:43;;;;;;;6.53;2.83;;;20.70;54.90;;;;;;4981546;28;20030;-56
2021/10/10 09:17:12;;;;;;;4.22;2.70;;;20.70;55.00;;;;;;4983415;28;20043;-55
2021/10/10 09:19:38;;;;;;;6.85;3.05;;;20.80;55.10;;;;;;4978929;28;20069;-56
2021/10/10 09:22:06;;;;;;;4.70;2.83;;;20.70;55.10;;;;;;4973881;28;20044;-58
2021/10/10 09:24:34;;;;;;;3.70;2.70;;;20.80;55.20;;;;;;4983520;28;20053;-57
2021/10/10 09:27:03;;;;;;;3.78;2.60;;;20.80;55.20;;;;;;4982043;28;20125;-58
2021/10/10 09:29:37;;;;;;;4.13;2.80;;;20.70;55.20;;;;;;4979212;28;20038;-58
2021/10/10 09:32:07;;;;;;;3.95;2.70;;;20.70;55.30;;;;;;4979937;28;20086;-55
2021/10/10 09:34:33;;;;;;;4.68;2.80;;;20.80;55.40;;;;;;4971831;28;20034;-58
2021/10/10 09:37:08;;;;;;;4.05;2.63;;;20.70;55.40;;;;;;4977701;28;20033;-51
2021/10/10 09:39:40;;;;;;;5.30;3.10;;;20.80;55.50;;;;;;4974839;28;20453;-53
2021/10/10 09:42:06;;;;;;;5.05;3.10;;;20.80;55.60;;;;;;4982583;28;20029;-51
2021/10/10 09:44:46;;;;;;;5.07;2.92;;;20.80;55.50;;;;;;4981264;28;20034;-56
2021/10/10 09:47:12;;;;;;;3.80;2.72;;;20.80;55.70;;;;;;4972759;28;20034;-56
2021/10/10 09:49:38;;;;;;;4.30;3.20;;;20.80;55.70;;;;;;4980224;28;20479;-57
2021/10/10 09:52:11;;;;;;;4.68;3.20;;;20.80;55.70;;;;;;4978138;28;20092;-50
2021/10/10 09:54:57;;;;;;;4.00;3.00;;;20.70;55.70;;;;;;4980178;28;20034;-55
2021/10/10 09:57:32;;;;;;;4.70;3.10;;;20.80;55.80;;;;;;4978971;28;20121;-57
2021/10/10 09:59:57;;;;;;;4.38;3.03;;;20.70;55.70;;;;;;4978972;28;20037;-53
2021/10/10 10:02:42;;;;;;;4.47;3.05;;;20.80;55.80;;;;;;4982612;28;20038;-55
2021/10/10 10:05:21;;;;;;;4.38;3.00;;;20.70;55.80;;;;;;4988053;28;20026;-56
2021/10/10 10:07:47;;;;;;;6.22;3.20;;;20.80;55.90;;;;;;4982972;28;20219;-57
2021/10/10 10:10:13;;;;;;;4.82;2.97;;;20.70;55.80;;;;;;4983832;28;20214;-56
2021/10/10 10:12:38;;;;;;;5.93;2.80;;;20.80;55.90;;;;;;4982270;28;20108;-59
2021/10/10 10:15:05;;;;;;;4.75;2.92;;;20.80;55.90;;;;;;4988473;28;20038;-58
2021/10/10 10:17:32;;;;;;;6.20;3.10;;;20.80;56.00;;;;;;4988262;28;20037;-55
2021/10/10 10:20:00;;;;;;;4.43;3.13;;;20.80;56.00;;;;;;4989250;28;20046;-54
2021/10/10 10:22:30;;;;;;;5.18;3.30;;;20.80;56.00;;;;;;4989714;28;20045;-57
2021/10/10 10:24:56;;;;;;;4.72;3.10;;;20.80;56.10;;;;;;4992376;28;20031;-58
2021/10/10 10:27:22;;;;;;;4.22;2.95;;;20.80;56.20;;;;;;4991704;28;20458;-57
2021/10/10 10:29:51;;;;;;;4.13;2.83;;;20.80;56.20;;;;;;4987251;28;20092;-56
2021/10/10 10:32:18;;;;;;;4.97;3.08;;;20.80;56.30;;;;;;4981628;28;20037;-56
2021/10/10 10:35:17;;;;;;;4.68;2.78;;;20.80;56.30;;;;;;4985974;28;20046;-56
2021/10/10 10:37:46;;;;;;;4.70;2.70;;;20.80;56.60;;;;;;4994924;28;20062;-59
2021/10/10 10:40:15;;;;;;;;;;;20.80;56.30;;;;;;4990171;28;20058;-59
2021/10/10 10:42:42;;;;;;;4.65;2.60;;;20.80;56.60;;;;;;4980302;28;19910;-57
2021/10/10 10:45:28;;;;;;;4.43;3.00;;;20.80;56.40;;;;;;4983993;28;20035;-58
2021/10/10 10:47:55;;;;;;;5.35;3.03;;;20.80;56.60;;;;;;4984612;28;20072;-59
2021/10/10 10:50:25;;;;;;;4.60;2.70;;;20.80;56.50;;;;;;4981061;28;20037;-58
2021/10/10 10:53:20;;;;;;;5.30;2.85;;;20.80;56.50;;;;;;4987471;28;20078;-52
2021/10/10 10:55:54;;;;;;;4.32;2.80;;;20.80;56.60;;;;;;4995274;28;20026;-53
2021/10/10 10:58:20;;;;;;;4.63;2.97;;;20.80;56.50;;;;;;4990031;28;20446;-54
2021/10/10 11:00:50;;;;;;;4.68;2.70;;;20.80;56.50;;;;;;4987830;28;20062;-56
2021/10/10 11:03:22;;;;;;;5.55;2.70;;;20.80;57.00;;;;;;4988714;28;20042;-58
2021/10/10 11:06:06;;;;;;;4.90;2.80;;;20.80;56.50;;;;;;4986299;28;20685;-54
2021/10/10 11:08:35;;;;;;;4.72;2.63;;;20.80;56.50;;;;;;4988966;28;20026;-56
2021/10/10 11:11:04;;;;;;;4.18;2.80;;;20.80;56.40;;;;;;4984278;28;20374;-58
2021/10/10 11:13:35;;;;;;;4.50;2.65;;;20.80;56.40;;;;;;4987330;28;20022;-53
2021/10/10 11:16:15;;;;;;;5.20;2.70;;;20.80;56.40;;;;;;4982626;28;20041;-56
2021/10/10 11:18:51;;;;;;;4.35;2.60;;;20.80;56.40;;;;;;4981704;28;20030;-60
2021/10/10 11:21:20;;;;;;;4.90;2.70;;;20.80;56.40;;;;;;4980705;28;20045;-58
2021/10/10 11:23:55;;;;;;;4.28;2.70;;;20.80;56.20;;;;;;4986263;28;20031;-58
2021/10/10 11:26:23;;;;;;;5.53;2.58;;;20.80;56.30;;;;;;4982109;28;20038;-57
2021/10/10 11:29:00;;;;;;;4.30;2.70;;;20.80;56.30;;;;;;4985392;28;20138;-58
2021/10/10 11:31:28;;;;;;;4.80;2.60;;;20.80;56.20;;;;;;4983183;28;20045;-59
2021/10/10 11:34:02;;;;;;;3.63;2.65;;;20.80;56.20;;;;;;4984666;28;20034;-57
2021/10/10 11:36:46;;;;;;;3.85;2.70;;;20.80;56.30;;;;;;4984727;28;20124;-57
2021/10/10 11:39:19;;;;;;;3.92;2.50;;;20.80;56.30;;;;;;4987142;28;20054;-59
2021/10/10 11:41:51;;;;;;;6.07;3.20;;;20.90;56.40;;;;;;4983731;28;20022;-54
2021/10/10 11:44:18;;;;;;;4.45;2.65;;;21.00;56.80;;;;;;4988000;28;20026;-57
2021/10/10 11:46:52;;;;;;;5.03;2.90;;;21.10;56.50;;;;;;4997369;28;20033;-58
2021/10/10 11:49:31;;;;;;;5.00;2.78;;;21.30;56.30;;;;;;4994297;28;20137;-58
2021/10/10 11:54:48;;;;;;;3.85;2.33;;;21.50;55.60;;;;;;4988238;28;20050;-56
2021/10/10 11:57:15;;;;;;;3.60;2.50;;;21.50;55.60;;;;;;4991067;28;20049;-58
2021/10/10 11:59:55;;;;;;;4.32;2.50;;;21.40;55.50;;;;;;4984235;28;20052;-56
2021/10/10 12:02:22;;;;;;;4.20;2.90;;;21.50;55.50;;;;;;4978627;28;20034;-58
2021/10/10 12:05:04;;;;;;;3.65;2.45;;;21.50;55.50;;;;;;4989466;28;20022;-60
2021/10/10 12:07:30;;;;;;;3.92;2.53;;;21.50;55.50;;;;;;4985166;28;20023;-60
2021/10/10 12:09:56;;;;;;;4.45;2.72;;;21.50;55.50;;;;;;4985522;28;20118;-57
2021/10/10 12:12:22;;;;;;;4.35;2.67;;;21.50;55.40;;;;;;4988060;28;20118;-55
2021/10/10 12:14:53;;;;;;;3.63;2.70;;;21.50;55.40;;;;;;4996116;28;20058;-58
2021/10/10 12:17:43;;;;;;;4.80;2.40;;;21.50;55.30;;;;;;4980782;28;20077;-55
2021/10/10 12:20:18;;;;;;;3.30;2.30;;;21.50;55.30;;;;;;4982073;28;20026;-57
2021/10/10 12:22:48;;;;;;;4.40;2.83;;;21.50;55.20;;;;;;4983651;28;20038;-59
2021/10/10 12:25:23;;;;;;;5.95;2.80;;;21.50;55.20;;;;;;4979508;28;20030;-52
2021/10/10 12:27:54;;;;;;;3.55;2.58;;;21.50;55.10;;;;;;4987428;28;20046;-58
2021/10/10 12:30:25;;;;;;;3.90;2.55;;;21.50;55.10;;;;;;4986387;28;20370;-58
2021/10/10 12:32:51;;;;;;;5.45;2.90;;;21.50;55.00;;;;;;4988877;28;20019;-59
2021/10/10 12:35:17;;;;;;;5.50;2.90;;;21.50;55.00;;;;;;4980516;28;20888;-55
2021/10/10 12:37:53;;;;;;;3.60;2.65;;;21.50;54.90;;;;;;4985820;28;20493;-57
2021/10/10 12:40:36;;;;;;;4.43;2.63;;;21.50;54.90;;;;;;4994418;28;20030;-58
2021/10/10 12:43:03;;;;;;;4.47;2.55;;;21.50;54.80;;;;;;4986879;28;20114;-55
2021/10/10 12:45:30;;;;;;;3.65;2.50;;;21.50;54.80;;;;;;4985946;28;20034;-58
2021/10/10 12:48:20;;;;;;;4.10;2.75;;;21.50;54.80;;;;;;4988157;28;20026;-58
2021/10/10 12:50:51;;;;;;;5.68;2.55;;;21.50;54.80;;;;;;4980244;28;20025;-59
2021/10/10 12:53:27;;;;;;;4.70;2.70;;;21.50;54.80;;;;;;4978182;28;20027;-58
2021/10/10 12:56:13;;;;;;;4.80;2.85;;;21.50;54.70;;;;;;4976320;28;20038;-55
2021/10/10 12:58:56;;;;;;;3.95;2.50;;;21.50;54.70;;;;;;4987688;28;20038;-57